Thursday, November 14, 2019, 9:05 PM EST
Back to Local

KMHT, Manchester Airport

Location: Manchester, NH, United States Lat: 42.933
Local Time: 9:05 PM EST ( 2:05 GMT) Lon: -71.433
Time Zone: US/Eastern Elev: 232 ft

Show me the last for .
Show Decoded

2019-11-14 19:53 METAR KMHT 150053Z 00000KT 10SM SCT035 BKN095 M01/M08 A3028 RMK AO2 SLP274
                 T10111078 =
2019-11-14 18:53 METAR KMHT 142353Z 31004KT 10SM FEW035 SCT090 M01/M07 A3028 RMK AO2 SLP275
                 T10061072 10006 21017 58019 =
2019-11-14 17:53 METAR KMHT 142253Z 14003KT 10SM FEW035 SCT095 BKN140 00/M08 A3030 RMK AO2 SLP282
                 T00001078 =
2019-11-14 16:53 METAR KMHT 142153Z 00000KT 10SM BKN033 BKN100 BKN250 00/M08 A3033 RMK AO2 SLP291
                 T00001083 =
2019-11-14 15:53 METAR KMHT 142053Z 14005KT 10SM SCT033 BKN100 BKN250 01/M09 A3034 RMK AO2 SLP294
                 T00061089 58020 =
2019-11-14 14:53 METAR KMHT 141953Z 13005KT 10SM BKN037 BKN110 BKN250 01/M09 A3036 RMK AO2 SLP301
                 T00061094 =
2019-11-14 13:53 METAR KMHT 141853Z 00000KT 10SM SCT042 OVC100 M01/M11 A3038 RMK AO2 SLP308
                 T10111106 =
2019-11-14 12:53 METAR KMHT 141753Z 00000KT 10SM BKN043 OVC110 M02/M11 A3040 RMK AO2 SLP314
                 T10171111 11017 21078 56027 =
2019-11-14 11:53 METAR KMHT 141653Z 25004KT 10SM FEW032 OVC110 M03/M12 A3041 RMK AO2 SLP321
                 T10281117 =
2019-11-14 10:53 METAR KMHT 141553Z 19007KT 10SM BKN039 OVC110 M04/M13 A3045 RMK AO2 SLP332
                 T10391128 =
2019-11-14 09:53 METAR KMHT 141453Z 00000KT 10SM BKN110 OVC200 M06/M12 A3048 RMK AO2 SLP342
                 T10561122 50006 =
2019-11-14 08:53 METAR KMHT 141353Z 00000KT 10SM BKN110 OVC200 M06/M11 A3048 RMK AO2 SLP343
                 T10611106 =
2019-11-14 07:53 METAR KMHT 141253Z 00000KT 10SM BKN110 OVC200 M07/M11 A3047 RMK AO2 SLP339
                 T10721106 =
2019-11-14 06:53 METAR KMHT 141153Z 00000KT 10SM SCT150 BKN200 M08/M11 A3046 RMK AO2 SLP336
                 T10781111 11078 21089 51002 =
2019-11-14 05:53 METAR KMHT 141053Z 00000KT 10SM FEW150 BKN220 M08/M12 A3045 RMK AO2 SLP334
                 T10831117 =
2019-11-14 04:53 METAR KMHT 140953Z 00000KT 10SM BKN220 M08/M11 A3046 RMK AO2 SLP336 T10831111 =
2019-11-14 03:53 METAR KMHT 140853Z 00000KT 10SM BKN200 M09/M12 A3045 RMK AO2 SLP334 T10891117
                 52004 =
2019-11-14 02:53 METAR KMHT 140753Z 00000KT 10SM BKN200 M08/M12 A3044 RMK AO2 SLP331 T10831122 =
2019-11-14 01:53 METAR KMHT 140653Z 00000KT 10SM BKN200 M08/M12 A3045 RMK AO2 SLP333 T10831122 =
2019-11-14 00:53 METAR KMHT 140553Z 00000KT 10SM BKN200 M08/M13 A3044 RMK AO2 SLP330 T10831128
                 11050 21083 51010 =
2019-11-13 23:53 METAR KMHT 140453Z 00000KT 10SM BKN250 M08/M13 A3044 RMK AO2 SLP329 T10781133
                 410221089 =
2019-11-13 22:53 METAR KMHT 140353Z 00000KT 10SM BKN250 M07/M14 A3042 RMK AO2 SLP323 T10671139 =
2019-11-13 21:53 METAR KMHT 140253Z 00000KT 10SM BKN250 M07/M14 A3041 RMK AO2 SLP320 T10671139
                 51022 =

Support USWX by starting your Amazon purchase here.